sensor_id;sensor_type;location;lat;lon;timestamp;P1;durP1;ratioP1;P2;durP2;ratioP2
13708;SDS011;54933;51.908;7.730;2023-06-10T00:00:41;2.00;;;1.90;;
13708;SDS011;54933;51.908;7.730;2023-06-10T00:03:07;2.43;;;2.10;;
13708;SDS011;54933;51.908;7.730;2023-06-10T00:05:34;2.70;;;2.00;;
13708;SDS011;54933;51.908;7.730;2023-06-10T00:07:59;2.87;;;2.17;;
13708;SDS011;54933;51.908;7.730;2023-06-10T00:10:26;2.10;;;2.00;;
13708;SDS011;54933;51.908;7.730;2023-06-10T00:12:52;2.00;;;1.90;;
13708;SDS011;54933;51.908;7.730;2023-06-10T00:15:17;2.23;;;2.13;;
13708;SDS011;54933;51.908;7.730;2023-06-10T00:17:42;1.90;;;1.80;;
13708;SDS011;54933;51.908;7.730;2023-06-10T00:20:08;1.80;;;1.70;;
13708;SDS011;54933;51.908;7.730;2023-06-10T00:22:36;2.17;;;2.00;;
13708;SDS011;54933;51.908;7.730;2023-06-10T00:25:03;2.13;;;2.00;;
13708;SDS011;54933;51.908;7.730;2023-06-10T00:27:29;1.93;;;1.80;;
13708;SDS011;54933;51.908;7.730;2023-06-10T00:30:00;2.03;;;1.93;;
13708;SDS011;54933;51.908;7.730;2023-06-10T00:32:26;2.00;;;1.90;;
13708;SDS011;54933;51.908;7.730;2023-06-10T00:34:51;2.23;;;2.13;;
13708;SDS011;54933;51.908;7.730;2023-06-10T00:37:16;2.43;;;2.23;;
13708;SDS011;54933;51.908;7.730;2023-06-10T00:39:42;2.10;;;2.00;;
13708;SDS011;54933;51.908;7.730;2023-06-10T00:42:07;2.10;;;2.00;;
13708;SDS011;54933;51.908;7.730;2023-06-10T00:44:35;2.20;;;2.10;;
13708;SDS011;54933;51.908;7.730;2023-06-10T00:47:00;1.87;;;1.80;;
13708;SDS011;54933;51.908;7.730;2023-06-10T00:49:26;2.27;;;1.87;;
13708;SDS011;54933;51.908;7.730;2023-06-10T00:51:52;4.77;;;2.10;;
13708;SDS011;54933;51.908;7.730;2023-06-10T00:54:18;1.90;;;1.80;;
13708;SDS011;54933;51.908;7.730;2023-06-10T00:56:44;1.97;;;1.80;;
13708;SDS011;54933;51.908;7.730;2023-06-10T00:59:10;1.73;;;1.63;;
13708;SDS011;54933;51.908;7.730;2023-06-10T01:01:36;1.80;;;1.70;;
13708;SDS011;54933;51.908;7.730;2023-06-10T01:04:02;1.70;;;1.60;;
13708;SDS011;54933;51.908;7.730;2023-06-10T01:11:52;2.10;;;1.83;;
13708;SDS011;54933;51.908;7.730;2023-06-10T01:14:27;1.53;;;1.53;;
13708;SDS011;54933;51.908;7.730;2023-06-10T01:16:54;1.80;;;1.70;;
13708;SDS011;54933;51.908;7.730;2023-06-10T01:19:19;2.20;;;2.10;;
13708;SDS011;54933;51.908;7.730;2023-06-10T01:21:45;1.97;;;1.87;;
13708;SDS011;54933;51.908;7.730;2023-06-10T01:24:14;1.73;;;1.63;;
13708;SDS011;54933;51.908;7.730;2023-06-10T01:26:43;1.90;;;1.80;;
13708;SDS011;54933;51.908;7.730;2023-06-10T01:29:25;1.80;;;1.70;;
13708;SDS011;54933;51.908;7.730;2023-06-10T01:32:03;1.90;;;1.80;;
13708;SDS011;54933;51.908;7.730;2023-06-10T01:34:36;2.03;;;1.93;;
13708;SDS011;54933;51.908;7.730;2023-06-10T01:37:03;2.47;;;2.27;;
13708;SDS011;54933;51.908;7.730;2023-06-10T01:39:30;2.00;;;1.80;;
13708;SDS011;54933;51.908;7.730;2023-06-10T01:41:57;1.60;;;1.60;;
13708;SDS011;54933;51.908;7.730;2023-06-10T01:44:23;1.77;;;1.67;;
13708;SDS011;54933;51.908;7.730;2023-06-10T01:46:48;1.70;;;1.70;;
13708;SDS011;54933;51.908;7.730;2023-06-10T01:49:13;1.83;;;1.73;;
13708;SDS011;54933;51.908;7.730;2023-06-10T01:51:39;1.67;;;1.57;;
13708;SDS011;54933;51.908;7.730;2023-06-10T01:54:04;2.03;;;1.93;;
13708;SDS011;54933;51.908;7.730;2023-06-10T01:56:30;2.17;;;2.00;;
13708;SDS011;54933;51.908;7.730;2023-06-10T01:58:55;1.70;;;1.60;;
13708;SDS011;54933;51.908;7.730;2023-06-10T02:01:24;2.23;;;2.10;;
13708;SDS011;54933;51.908;7.730;2023-06-10T02:03:52;1.63;;;1.53;;
13708;SDS011;54933;51.908;7.730;2023-06-10T02:06:18;1.70;;;1.60;;
13708;SDS011;54933;51.908;7.730;2023-06-10T02:08:43;1.70;;;1.60;;
13708;SDS011;54933;51.908;7.730;2023-06-10T02:11:08;2.03;;;1.93;;
13708;SDS011;54933;51.908;7.730;2023-06-10T02:13:33;1.90;;;1.80;;
13708;SDS011;54933;51.908;7.730;2023-06-10T02:15:59;1.87;;;1.77;;
13708;SDS011;54933;51.908;7.730;2023-06-10T02:18:25;1.83;;;1.73;;
13708;SDS011;54933;51.908;7.730;2023-06-10T02:20:52;1.83;;;1.73;;
13708;SDS011;54933;51.908;7.730;2023-06-10T02:23:17;1.60;;;1.50;;
13708;SDS011;54933;51.908;7.730;2023-06-10T02:25:42;2.30;;;1.70;;
13708;SDS011;54933;51.908;7.730;2023-06-10T02:28:07;2.00;;;1.80;;
13708;SDS011;54933;51.908;7.730;2023-06-10T02:30:33;1.67;;;1.57;;
13708;SDS011;54933;51.908;7.730;2023-06-10T02:32:58;1.73;;;1.63;;
13708;SDS011;54933;51.908;7.730;2023-06-10T02:35:24;1.80;;;1.70;;
13708;SDS011;54933;51.908;7.730;2023-06-10T02:37:49;2.17;;;1.97;;
13708;SDS011;54933;51.908;7.730;2023-06-10T02:40:15;1.53;;;1.53;;
13708;SDS011;54933;51.908;7.730;2023-06-10T02:42:40;1.90;;;1.80;;
13708;SDS011;54933;51.908;7.730;2023-06-10T02:45:06;1.50;;;1.50;;
13708;SDS011;54933;51.908;7.730;2023-06-10T02:47:32;1.70;;;1.60;;
13708;SDS011;54933;51.908;7.730;2023-06-10T02:49:57;2.10;;;2.00;;
13708;SDS011;54933;51.908;7.730;2023-06-10T02:52:22;1.70;;;1.60;;
13708;SDS011;54933;51.908;7.730;2023-06-10T02:54:48;1.77;;;1.67;;
13708;SDS011;54933;51.908;7.730;2023-06-10T02:57:13;1.77;;;1.67;;
13708;SDS011;54933;51.908;7.730;2023-06-10T02:59:39;1.73;;;1.63;;
13708;SDS011;54933;51.908;7.730;2023-06-10T03:02:05;2.00;;;1.63;;
13708;SDS011;54933;51.908;7.730;2023-06-10T03:04:30;1.50;;;1.40;;
13708;SDS011;54933;51.908;7.730;2023-06-10T03:06:56;1.80;;;1.70;;
13708;SDS011;54933;51.908;7.730;2023-06-10T03:09:21;1.33;;;1.33;;
13708;SDS011;54933;51.908;7.730;2023-06-10T03:11:47;1.60;;;1.50;;
13708;SDS011;54933;51.908;7.730;2023-06-10T03:14:12;1.20;;;1.20;;
13708;SDS011;54933;51.908;7.730;2023-06-10T03:16:38;2.10;;;1.70;;
13708;SDS011;54933;51.908;7.730;2023-06-10T03:19:07;1.83;;;1.70;;
13708;SDS011;54933;51.908;7.730;2023-06-10T03:21:33;1.80;;;1.70;;
13708;SDS011;54933;51.908;7.730;2023-06-10T03:24:02;1.70;;;1.60;;
13708;SDS011;54933;51.908;7.730;2023-06-10T03:26:28;1.40;;;1.40;;
13708;SDS011;54933;51.908;7.730;2023-06-10T03:28:53;2.57;;;1.77;;
13708;SDS011;54933;51.908;7.730;2023-06-10T03:31:18;1.73;;;1.63;;
13708;SDS011;54933;51.908;7.730;2023-06-10T03:33:44;2.00;;;1.90;;
13708;SDS011;54933;51.908;7.730;2023-06-10T03:36:09;2.93;;;1.30;;
13708;SDS011;54933;51.908;7.730;2023-06-10T03:38:34;1.83;;;1.73;;
13708;SDS011;54933;51.908;7.730;2023-06-10T03:41:00;1.73;;;1.63;;
13708;SDS011;54933;51.908;7.730;2023-06-10T03:43:26;1.80;;;1.70;;
13708;SDS011;54933;51.908;7.730;2023-06-10T03:45:52;1.87;;;1.77;;
13708;SDS011;54933;51.908;7.730;2023-06-10T03:48:17;1.40;;;1.40;;
13708;SDS011;54933;51.908;7.730;2023-06-10T03:50:43;1.67;;;1.57;;
13708;SDS011;54933;51.908;7.730;2023-06-10T03:53:08;1.60;;;1.50;;
13708;SDS011;54933;51.908;7.730;2023-06-10T03:55:33;1.60;;;1.50;;
13708;SDS011;54933;51.908;7.730;2023-06-10T03:57:58;1.43;;;1.37;;
13708;SDS011;54933;51.908;7.730;2023-06-10T04:00:24;1.43;;;1.40;;
13708;SDS011;54933;51.908;7.730;2023-06-10T04:02:49;1.37;;;1.37;;
13708;SDS011;54933;51.908;7.730;2023-06-10T04:05:17;1.77;;;1.67;;
13708;SDS011;54933;51.908;7.730;2023-06-10T04:07:45;1.47;;;1.47;;
13708;SDS011;54933;51.908;7.730;2023-06-10T04:10:11;1.80;;;1.70;;
13708;SDS011;54933;51.908;7.730;2023-06-10T04:12:36;1.67;;;1.57;;
13708;SDS011;54933;51.908;7.730;2023-06-10T04:15:03;1.70;;;1.60;;
13708;SDS011;54933;51.908;7.730;2023-06-10T04:17:29;1.40;;;1.40;;
13708;SDS011;54933;51.908;7.730;2023-06-10T04:19:54;1.90;;;1.73;;
13708;SDS011;54933;51.908;7.730;2023-06-10T04:22:19;1.90;;;1.80;;
13708;SDS011;54933;51.908;7.730;2023-06-10T04:24:45;1.50;;;1.40;;
13708;SDS011;54933;51.908;7.730;2023-06-10T04:27:10;1.63;;;1.63;;
13708;SDS011;54933;51.908;7.730;2023-06-10T04:29:36;1.90;;;1.67;;
13708;SDS011;54933;51.908;7.730;2023-06-10T04:32:01;1.47;;;1.37;;
13708;SDS011;54933;51.908;7.730;2023-06-10T04:34:27;1.47;;;1.43;;
13708;SDS011;54933;51.908;7.730;2023-06-10T04:36:52;1.50;;;1.40;;
13708;SDS011;54933;51.908;7.730;2023-06-10T04:39:18;1.70;;;1.60;;
13708;SDS011;54933;51.908;7.730;2023-06-10T04:41:43;1.43;;;1.33;;
13708;SDS011;54933;51.908;7.730;2023-06-10T04:44:09;1.53;;;1.43;;
13708;SDS011;54933;51.908;7.730;2023-06-10T04:46:35;1.63;;;1.53;;
13708;SDS011;54933;51.908;7.730;2023-06-10T04:49:01;1.70;;;1.60;;
13708;SDS011;54933;51.908;7.730;2023-06-10T04:51:26;1.50;;;1.40;;
13708;SDS011;54933;51.908;7.730;2023-06-10T04:53:51;1.63;;;1.53;;
13708;SDS011;54933;51.908;7.730;2023-06-10T04:56:17;1.57;;;1.57;;
13708;SDS011;54933;51.908;7.730;2023-06-10T04:58:42;1.47;;;1.40;;
13708;SDS011;54933;51.908;7.730;2023-06-10T05:01:07;1.77;;;1.47;;
13708;SDS011;54933;51.908;7.730;2023-06-10T05:03:33;1.67;;;1.37;;
13708;SDS011;54933;51.908;7.730;2023-06-10T05:05:58;1.60;;;1.50;;
13708;SDS011;54933;51.908;7.730;2023-06-10T05:08:23;1.60;;;1.50;;
13708;SDS011;54933;51.908;7.730;2023-06-10T05:10:49;1.47;;;1.37;;
13708;SDS011;54933;51.908;7.730;2023-06-10T05:13:14;1.63;;;1.50;;
13708;SDS011;54933;51.908;7.730;2023-06-10T05:15:39;1.40;;;1.30;;
13708;SDS011;54933;51.908;7.730;2023-06-10T05:18:05;1.33;;;1.30;;
13708;SDS011;54933;51.908;7.730;2023-06-10T05:20:30;1.40;;;1.30;;
13708;SDS011;54933;51.908;7.730;2023-06-10T05:22:56;1.83;;;1.40;;
13708;SDS011;54933;51.908;7.730;2023-06-10T05:25:21;1.33;;;1.33;;
13708;SDS011;54933;51.908;7.730;2023-06-10T05:27:46;1.40;;;1.30;;
13708;SDS011;54933;51.908;7.730;2023-06-10T05:30:12;1.10;;;1.10;;
13708;SDS011;54933;51.908;7.730;2023-06-10T05:32:37;1.10;;;1.10;;
13708;SDS011;54933;51.908;7.730;2023-06-10T05:35:03;1.40;;;1.30;;
13708;SDS011;54933;51.908;7.730;2023-06-10T05:37:29;1.30;;;1.30;;
13708;SDS011;54933;51.908;7.730;2023-06-10T05:39:55;1.60;;;1.50;;
13708;SDS011;54933;51.908;7.730;2023-06-10T05:42:20;1.30;;;1.30;;
13708;SDS011;54933;51.908;7.730;2023-06-10T05:44:45;1.57;;;1.47;;
13708;SDS011;54933;51.908;7.730;2023-06-10T05:47:11;1.40;;;1.33;;
13708;SDS011;54933;51.908;7.730;2023-06-10T05:49:36;1.20;;;1.20;;
13708;SDS011;54933;51.908;7.730;2023-06-10T05:52:01;1.67;;;1.57;;
13708;SDS011;54933;51.908;7.730;2023-06-10T05:54:26;1.80;;;1.70;;
13708;SDS011;54933;51.908;7.730;2023-06-10T05:56:52;1.40;;;1.40;;
13708;SDS011;54933;51.908;7.730;2023-06-10T05:59:17;2.03;;;1.37;;
13708;SDS011;54933;51.908;7.730;2023-06-10T06:01:42;1.53;;;1.50;;
13708;SDS011;54933;51.908;7.730;2023-06-10T06:04:08;1.10;;;1.10;;
13708;SDS011;54933;51.908;7.730;2023-06-10T06:06:34;1.27;;;1.27;;
13708;SDS011;54933;51.908;7.730;2023-06-10T06:09:00;1.63;;;1.53;;
13708;SDS011;54933;51.908;7.730;2023-06-10T06:11:25;1.30;;;1.30;;
13708;SDS011;54933;51.908;7.730;2023-06-10T06:13:51;1.30;;;1.30;;
13708;SDS011;54933;51.908;7.730;2023-06-10T06:16:16;1.20;;;1.20;;
13708;SDS011;54933;51.908;7.730;2023-06-10T06:18:43;1.20;;;1.20;;
13708;SDS011;54933;51.908;7.730;2023-06-10T06:21:08;1.53;;;1.43;;
13708;SDS011;54933;51.908;7.730;2023-06-10T06:23:34;1.40;;;1.40;;
13708;SDS011;54933;51.908;7.730;2023-06-10T06:25:59;1.60;;;1.50;;
13708;SDS011;54933;51.908;7.730;2023-06-10T06:28:24;1.30;;;1.30;;
13708;SDS011;54933;51.908;7.730;2023-06-10T06:30:53;1.50;;;1.40;;
13708;SDS011;54933;51.908;7.730;2023-06-10T06:33:20;1.33;;;1.33;;
13708;SDS011;54933;51.908;7.730;2023-06-10T06:35:45;1.27;;;1.20;;
13708;SDS011;54933;51.908;7.730;2023-06-10T06:38:11;1.53;;;1.43;;
13708;SDS011;54933;51.908;7.730;2023-06-10T06:40:36;1.17;;;1.17;;
13708;SDS011;54933;51.908;7.730;2023-06-10T06:43:01;2.40;;;1.10;;
13708;SDS011;54933;51.908;7.730;2023-06-10T06:45:27;3.57;;;1.23;;
13708;SDS011;54933;51.908;7.730;2023-06-10T06:47:52;5.07;;;1.33;;
13708;SDS011;54933;51.908;7.730;2023-06-10T06:50:17;4.03;;;1.63;;
13708;SDS011;54933;51.908;7.730;2023-06-10T06:52:43;2.57;;;1.60;;
13708;SDS011;54933;51.908;7.730;2023-06-10T06:55:08;3.03;;;1.57;;
13708;SDS011;54933;51.908;7.730;2023-06-10T06:57:33;3.10;;;1.60;;
13708;SDS011;54933;51.908;7.730;2023-06-10T06:59:59;1.53;;;1.43;;
13708;SDS011;54933;51.908;7.730;2023-06-10T07:02:25;1.53;;;1.43;;
13708;SDS011;54933;51.908;7.730;2023-06-10T07:04:51;2.40;;;1.20;;
13708;SDS011;54933;51.908;7.730;2023-06-10T07:07:16;4.97;;;1.50;;
13708;SDS011;54933;51.908;7.730;2023-06-10T07:09:41;4.30;;;1.50;;
13708;SDS011;54933;51.908;7.730;2023-06-10T07:12:07;2.93;;;1.60;;
13708;SDS011;54933;51.908;7.730;2023-06-10T07:14:32;1.87;;;1.57;;
13708;SDS011;54933;51.908;7.730;2023-06-10T07:16:58;2.03;;;1.17;;
13708;SDS011;54933;51.908;7.730;2023-06-10T07:19:23;4.03;;;2.50;;
13708;SDS011;54933;51.908;7.730;2023-06-10T07:21:48;4.23;;;1.40;;
13708;SDS011;54933;51.908;7.730;2023-06-10T07:24:14;6.10;;;1.23;;
13708;SDS011;54933;51.908;7.730;2023-06-10T07:26:39;3.73;;;1.30;;
13708;SDS011;54933;51.908;7.730;2023-06-10T07:29:04;4.10;;;1.37;;
13708;SDS011;54933;51.908;7.730;2023-06-10T07:31:30;7.43;;;1.90;;
13708;SDS011;54933;51.908;7.730;2023-06-10T07:33:55;1.53;;;1.43;;
13708;SDS011;54933;51.908;7.730;2023-06-10T07:36:20;2.20;;;1.40;;
13708;SDS011;54933;51.908;7.730;2023-06-10T07:38:45;1.20;;;1.20;;
13708;SDS011;54933;51.908;7.730;2023-06-10T07:41:11;1.67;;;1.57;;
13708;SDS011;54933;51.908;7.730;2023-06-10T07:43:36;1.63;;;1.53;;
13708;SDS011;54933;51.908;7.730;2023-06-10T07:46:03;3.90;;;1.73;;
13708;SDS011;54933;51.908;7.730;2023-06-10T07:48:30;5.80;;;1.80;;
13708;SDS011;54933;51.908;7.730;2023-06-10T07:50:55;5.93;;;2.20;;
13708;SDS011;54933;51.908;7.730;2023-06-10T07:53:20;4.97;;;1.67;;
13708;SDS011;54933;51.908;7.730;2023-06-10T07:55:46;9.10;;;1.90;;
13708;SDS011;54933;51.908;7.730;2023-06-10T07:58:11;15.33;;;2.87;;
13708;SDS011;54933;51.908;7.730;2023-06-10T08:00:36;8.83;;;1.77;;
13708;SDS011;54933;51.908;7.730;2023-06-10T08:03:02;8.80;;;2.10;;
13708;SDS011;54933;51.908;7.730;2023-06-10T08:05:27;6.43;;;1.70;;
13708;SDS011;54933;51.908;7.730;2023-06-10T08:07:53;2.87;;;1.60;;
13708;SDS011;54933;51.908;7.730;2023-06-10T08:10:18;5.17;;;1.77;;
13708;SDS011;54933;51.908;7.730;2023-06-10T08:12:44;6.73;;;1.80;;
13708;SDS011;54933;51.908;7.730;2023-06-10T08:15:09;8.23;;;2.23;;
13708;SDS011;54933;51.908;7.730;2023-06-10T08:17:35;6.63;;;1.83;;
13708;SDS011;54933;51.908;7.730;2023-06-10T08:20:00;5.93;;;1.90;;
13708;SDS011;54933;51.908;7.730;2023-06-10T08:22:26;8.87;;;1.70;;
13708;SDS011;54933;51.908;7.730;2023-06-10T08:24:54;9.27;;;1.53;;
13708;SDS011;54933;51.908;7.730;2023-06-10T08:27:19;6.47;;;1.67;;
13708;SDS011;54933;51.908;7.730;2023-06-10T08:29:44;2.53;;;1.87;;
13708;SDS011;54933;51.908;7.730;2023-06-10T08:32:10;6.33;;;2.13;;
13708;SDS011;54933;51.908;7.730;2023-06-10T08:34:35;4.00;;;1.87;;
13708;SDS011;54933;51.908;7.730;2023-06-10T08:37:01;2.23;;;1.50;;
13708;SDS011;54933;51.908;7.730;2023-06-10T08:39:27;4.03;;;1.83;;
13708;SDS011;54933;51.908;7.730;2023-06-10T08:42:00;5.10;;;1.70;;
13708;SDS011;54933;51.908;7.730;2023-06-10T08:44:32;17.83;;;3.17;;
13708;SDS011;54933;51.908;7.730;2023-06-10T08:47:02;83.10;;;6.23;;
13708;SDS011;54933;51.908;7.730;2023-06-10T08:49:42;9.33;;;2.77;;
13708;SDS011;54933;51.908;7.730;2023-06-10T08:52:19;15.43;;;2.60;;
13708;SDS011;54933;51.908;7.730;2023-06-10T08:54:56;15.87;;;3.23;;
13708;SDS011;54933;51.908;7.730;2023-06-10T08:57:24;20.17;;;3.20;;
13708;SDS011;54933;51.908;7.730;2023-06-10T08:59:50;13.90;;;2.63;;
13708;SDS011;54933;51.908;7.730;2023-06-10T09:02:18;50.50;;;5.27;;
13708;SDS011;54933;51.908;7.730;2023-06-10T09:04:45;52.20;;;6.37;;
13708;SDS011;54933;51.908;7.730;2023-06-10T09:07:11;37.80;;;5.30;;
13708;SDS011;54933;51.908;7.730;2023-06-10T09:09:39;37.63;;;5.23;;
13708;SDS011;54933;51.908;7.730;2023-06-10T09:12:06;36.67;;;5.43;;
13708;SDS011;54933;51.908;7.730;2023-06-10T09:14:32;40.80;;;5.03;;
13708;SDS011;54933;51.908;7.730;2023-06-10T09:16:57;34.93;;;4.00;;
13708;SDS011;54933;51.908;7.730;2023-06-10T09:19:23;79.07;;;4.93;;
13708;SDS011;54933;51.908;7.730;2023-06-10T09:21:50;20.60;;;2.83;;
13708;SDS011;54933;51.908;7.730;2023-06-10T09:24:15;14.30;;;2.60;;
13708;SDS011;54933;51.908;7.730;2023-06-10T09:26:41;10.47;;;2.80;;
13708;SDS011;54933;51.908;7.730;2023-06-10T09:29:08;9.83;;;2.20;;
13708;SDS011;54933;51.908;7.730;2023-06-10T09:31:35;14.73;;;3.00;;
13708;SDS011;54933;51.908;7.730;2023-06-10T09:34:14;16.37;;;2.97;;
13708;SDS011;54933;51.908;7.730;2023-06-10T09:36:42;16.13;;;3.20;;
13708;SDS011;54933;51.908;7.730;2023-06-10T09:39:15;26.60;;;3.93;;
13708;SDS011;54933;51.908;7.730;2023-06-10T09:41:41;19.67;;;2.53;;
13708;SDS011;54933;51.908;7.730;2023-06-10T09:44:18;11.37;;;2.93;;
13708;SDS011;54933;51.908;7.730;2023-06-10T09:46:45;12.10;;;2.70;;
13708;SDS011;54933;51.908;7.730;2023-06-10T09:49:12;14.33;;;2.53;;
13708;SDS011;54933;51.908;7.730;2023-06-10T09:51:37;11.70;;;2.23;;
13708;SDS011;54933;51.908;7.730;2023-06-10T09:54:03;17.87;;;2.23;;
13708;SDS011;54933;51.908;7.730;2023-06-10T09:56:35;18.17;;;2.30;;
13708;SDS011;54933;51.908;7.730;2023-06-10T09:59:01;9.37;;;2.23;;
13708;SDS011;54933;51.908;7.730;2023-06-10T10:01:28;7.77;;;2.13;;
13708;SDS011;54933;51.908;7.730;2023-06-10T10:03:55;7.70;;;1.90;;
13708;SDS011;54933;51.908;7.730;2023-06-10T10:06:21;6.27;;;2.00;;
13708;SDS011;54933;51.908;7.730;2023-06-10T10:08:47;13.90;;;2.60;;
13708;SDS011;54933;51.908;7.730;2023-06-10T10:11:14;53.53;;;5.37;;
13708;SDS011;54933;51.908;7.730;2023-06-10T10:13:42;31.47;;;4.70;;
13708;SDS011;54933;51.908;7.730;2023-06-10T10:16:12;47.37;;;4.80;;
13708;SDS011;54933;51.908;7.730;2023-06-10T10:18:43;41.10;;;4.00;;
13708;SDS011;54933;51.908;7.730;2023-06-10T10:21:18;26.83;;;4.03;;
13708;SDS011;54933;51.908;7.730;2023-06-10T10:23:51;46.87;;;4.73;;
13708;SDS011;54933;51.908;7.730;2023-06-10T10:26:19;35.07;;;4.67;;
13708;SDS011;54933;51.908;7.730;2023-06-10T10:29:47;82.97;;;6.70;;
13708;SDS011;54933;51.908;7.730;2023-06-10T10:31:50;124.90;;;10.10;;
13708;SDS011;54933;51.908;7.730;2023-06-10T10:34:19;258.83;;;16.60;;
13708;SDS011;54933;51.908;7.730;2023-06-10T10:36:49;201.97;;;17.00;;
13708;SDS011;54933;51.908;7.730;2023-06-10T10:39:15;164.33;;;13.70;;
13708;SDS011;54933;51.908;7.730;2023-06-10T10:41:41;132.20;;;10.93;;
13708;SDS011;54933;51.908;7.730;2023-06-10T10:44:08;125.63;;;11.20;;
13708;SDS011;54933;51.908;7.730;2023-06-10T10:46:44;98.47;;;9.70;;
13708;SDS011;54933;51.908;7.730;2023-06-10T10:49:13;122.00;;;11.23;;
13708;SDS011;54933;51.908;7.730;2023-06-10T10:51:54;121.63;;;11.33;;
13708;SDS011;54933;51.908;7.730;2023-06-10T10:54:32;91.67;;;8.60;;
13708;SDS011;54933;51.908;7.730;2023-06-10T10:57:09;100.33;;;9.37;;
13708;SDS011;54933;51.908;7.730;2023-06-10T10:59:44;88.33;;;6.93;;
13708;SDS011;54933;51.908;7.730;2023-06-10T11:02:37;110.33;;;9.67;;
13708;SDS011;54933;51.908;7.730;2023-06-10T11:05:08;261.03;;;22.17;;
13708;SDS011;54933;51.908;7.730;2023-06-10T11:07:34;138.27;;;13.77;;
13708;SDS011;54933;51.908;7.730;2023-06-10T11:10:08;106.00;;;10.17;;
13708;SDS011;54933;51.908;7.730;2023-06-10T11:12:40;90.53;;;9.90;;
13708;SDS011;54933;51.908;7.730;2023-06-10T11:15:06;89.30;;;9.20;;
13708;SDS011;54933;51.908;7.730;2023-06-10T11:17:31;70.00;;;7.77;;
13708;SDS011;54933;51.908;7.730;2023-06-10T11:19:58;60.83;;;7.70;;
13708;SDS011;54933;51.908;7.730;2023-06-10T11:22:24;52.63;;;7.33;;
13708;SDS011;54933;51.908;7.730;2023-06-10T11:24:49;69.37;;;7.67;;
13708;SDS011;54933;51.908;7.730;2023-06-10T11:27:15;56.83;;;7.07;;
13708;SDS011;54933;51.908;7.730;2023-06-10T11:32:29;58.87;;;6.50;;
13708;SDS011;54933;51.908;7.730;2023-06-10T11:34:56;51.77;;;6.33;;
13708;SDS011;54933;51.908;7.730;2023-06-10T11:37:22;57.67;;;5.90;;
13708;SDS011;54933;51.908;7.730;2023-06-10T11:39:50;49.10;;;6.40;;
13708;SDS011;54933;51.908;7.730;2023-06-10T11:42:17;40.83;;;5.30;;
13708;SDS011;54933;51.908;7.730;2023-06-10T11:44:53;27.93;;;5.00;;
13708;SDS011;54933;51.908;7.730;2023-06-10T11:47:19;50.53;;;4.97;;
13708;SDS011;54933;51.908;7.730;2023-06-10T11:49:45;28.30;;;4.90;;
13708;SDS011;54933;51.908;7.730;2023-06-10T11:52:11;36.90;;;4.77;;
13708;SDS011;54933;51.908;7.730;2023-06-10T11:54:37;22.03;;;4.50;;
13708;SDS011;54933;51.908;7.730;2023-06-10T11:57:03;24.00;;;3.43;;
13708;SDS011;54933;51.908;7.730;2023-06-10T11:59:29;28.87;;;4.63;;
13708;SDS011;54933;51.908;7.730;2023-06-10T12:01:55;29.23;;;4.53;;
13708;SDS011;54933;51.908;7.730;2023-06-10T12:04:21;16.90;;;4.40;;
13708;SDS011;54933;51.908;7.730;2023-06-10T12:09:20;20.13;;;3.60;;
13708;SDS011;54933;51.908;7.730;2023-06-10T12:12:11;112.27;;;10.07;;
13708;SDS011;54933;51.908;7.730;2023-06-10T12:19:55;70.67;;;7.27;;
13708;SDS011;54933;51.908;7.730;2023-06-10T12:22:20;47.40;;;5.87;;
13708;SDS011;54933;51.908;7.730;2023-06-10T12:24:57;59.63;;;6.50;;
13708;SDS011;54933;51.908;7.730;2023-06-10T12:27:31;46.47;;;5.43;;
13708;SDS011;54933;51.908;7.730;2023-06-10T12:29:58;35.20;;;5.37;;
13708;SDS011;54933;51.908;7.730;2023-06-10T12:32:42;34.07;;;4.60;;
13708;SDS011;54933;51.908;7.730;2023-06-10T12:35:08;36.80;;;4.80;;
13708;SDS011;54933;51.908;7.730;2023-06-10T12:37:35;38.43;;;4.57;;
13708;SDS011;54933;51.908;7.730;2023-06-10T12:40:02;36.87;;;4.10;;
13708;SDS011;54933;51.908;7.730;2023-06-10T12:42:28;31.17;;;4.50;;
13708;SDS011;54933;51.908;7.730;2023-06-10T12:44:59;56.77;;;6.30;;
13708;SDS011;54933;51.908;7.730;2023-06-10T12:47:31;40.03;;;3.70;;
13708;SDS011;54933;51.908;7.730;2023-06-10T12:50:00;41.57;;;4.37;;
13708;SDS011;54933;51.908;7.730;2023-06-10T12:52:35;20.03;;;3.90;;
13708;SDS011;54933;51.908;7.730;2023-06-10T12:55:00;14.53;;;3.27;;
13708;SDS011;54933;51.908;7.730;2023-06-10T12:57:26;21.03;;;2.97;;
13708;SDS011;54933;51.908;7.730;2023-06-10T12:59:51;13.83;;;3.43;;
13708;SDS011;54933;51.908;7.730;2023-06-10T13:02:22;10.90;;;2.77;;
13708;SDS011;54933;51.908;7.730;2023-06-10T13:04:49;9.33;;;2.87;;
13708;SDS011;54933;51.908;7.730;2023-06-10T13:07:15;3.07;;;2.00;;
13708;SDS011;54933;51.908;7.730;2023-06-10T13:09:41;11.63;;;2.23;;
13708;SDS011;54933;51.908;7.730;2023-06-10T13:12:07;4.30;;;2.10;;
13708;SDS011;54933;51.908;7.730;2023-06-10T13:14:33;5.30;;;2.23;;
13708;SDS011;54933;51.908;7.730;2023-06-10T13:16:58;5.03;;;2.23;;
13708;SDS011;54933;51.908;7.730;2023-06-10T13:19:23;4.77;;;2.30;;
13708;SDS011;54933;51.908;7.730;2023-06-10T13:21:48;7.47;;;2.17;;
13708;SDS011;54933;51.908;7.730;2023-06-10T13:24:14;3.80;;;2.20;;
13708;SDS011;54933;51.908;7.730;2023-06-10T13:26:39;10.67;;;2.57;;
13708;SDS011;54933;51.908;7.730;2023-06-10T13:29:05;7.33;;;2.63;;
13708;SDS011;54933;51.908;7.730;2023-06-10T13:31:30;16.10;;;3.17;;
13708;SDS011;54933;51.908;7.730;2023-06-10T13:33:57;10.90;;;2.73;;
13708;SDS011;54933;51.908;7.730;2023-06-10T13:36:22;19.30;;;2.67;;
13708;SDS011;54933;51.908;7.730;2023-06-10T13:38:47;12.07;;;2.53;;
13708;SDS011;54933;51.908;7.730;2023-06-10T13:41:13;7.97;;;2.57;;
13708;SDS011;54933;51.908;7.730;2023-06-10T13:43:38;3.63;;;2.23;;
13708;SDS011;54933;51.908;7.730;2023-06-10T13:46:04;9.63;;;2.43;;
13708;SDS011;54933;51.908;7.730;2023-06-10T13:48:29;6.97;;;2.30;;
13708;SDS011;54933;51.908;7.730;2023-06-10T13:50:56;11.40;;;2.60;;
13708;SDS011;54933;51.908;7.730;2023-06-10T13:53:21;9.27;;;2.30;;
13708;SDS011;54933;51.908;7.730;2023-06-10T13:55:46;12.93;;;2.80;;
13708;SDS011;54933;51.908;7.730;2023-06-10T13:58:11;11.73;;;1.97;;
13708;SDS011;54933;51.908;7.730;2023-06-10T14:00:37;10.03;;;2.20;;
13708;SDS011;54933;51.908;7.730;2023-06-10T14:03:02;6.00;;;2.10;;
13708;SDS011;54933;51.908;7.730;2023-06-10T14:05:28;7.53;;;2.57;;
13708;SDS011;54933;51.908;7.730;2023-06-10T14:07:53;5.67;;;2.30;;
13708;SDS011;54933;51.908;7.730;2023-06-10T14:10:19;6.73;;;2.10;;
13708;SDS011;54933;51.908;7.730;2023-06-10T14:12:44;5.43;;;2.10;;
13708;SDS011;54933;51.908;7.730;2023-06-10T14:15:09;4.07;;;2.10;;
13708;SDS011;54933;51.908;7.730;2023-06-10T14:17:35;4.93;;;1.90;;
13708;SDS011;54933;51.908;7.730;2023-06-10T14:20:00;3.07;;;1.63;;
13708;SDS011;54933;51.908;7.730;2023-06-10T14:22:25;7.67;;;2.07;;
13708;SDS011;54933;51.908;7.730;2023-06-10T14:24:51;6.63;;;2.40;;
13708;SDS011;54933;51.908;7.730;2023-06-10T14:27:16;4.93;;;1.97;;
13708;SDS011;54933;51.908;7.730;2023-06-10T14:29:41;7.20;;;2.53;;
13708;SDS011;54933;51.908;7.730;2023-06-10T14:32:07;6.57;;;2.33;;
13708;SDS011;54933;51.908;7.730;2023-06-10T14:34:32;7.90;;;2.73;;
13708;SDS011;54933;51.908;7.730;2023-06-10T14:36:59;10.90;;;2.77;;
13708;SDS011;54933;51.908;7.730;2023-06-10T14:39:24;2.00;;;1.80;;
13708;SDS011;54933;51.908;7.730;2023-06-10T14:41:50;13.00;;;2.80;;
13708;SDS011;54933;51.908;7.730;2023-06-10T14:44:17;6.53;;;2.57;;
13708;SDS011;54933;51.908;7.730;2023-06-10T14:46:42;4.23;;;2.67;;
13708;SDS011;54933;51.908;7.730;2023-06-10T14:49:08;5.23;;;2.47;;
13708;SDS011;54933;51.908;7.730;2023-06-10T14:51:33;5.53;;;2.30;;
13708;SDS011;54933;51.908;7.730;2023-06-10T14:53:59;7.80;;;2.23;;
13708;SDS011;54933;51.908;7.730;2023-06-10T14:56:24;3.77;;;2.33;;